Time,TemperatureF,DewpointF,PressureIn,WindDirection,WindDirectionDegrees,WindSpeedMPH,WindSpeedGustMPH,Humidity,HourlyPrecipIn,Conditions,Clouds,dailyrainin,SoftwareType,DateUTC
2016-08-27 00:04:00,68.4,67.2,30.10,SSE,167,0.0,0.0,96,0.00,,---,0.00,VWS V15.00,2016-08-27 04:04:00,
2016-08-27 00:09:00,68.3,67.1,30.10,SSE,167,0.0,0.0,96,0.00,,---,0.00,VWS V15.00,2016-08-27 04:09:00,
2016-08-27 00:14:00,68.3,67.1,30.10,SSE,167,0.0,0.0,96,0.00,,---,0.00,VWS V15.00,2016-08-27 04:14:00,
2016-08-27 00:19:00,68.1,66.9,30.10,SSE,167,0.0,0.0,96,0.00,,---,0.00,VWS V15.00,2016-08-27 04:19:00,
2016-08-27 00:25:00,68.1,66.9,30.10,SSE,167,0.0,0.0,96,0.00,,---,0.00,VWS V15.00,2016-08-27 04:25:00,
2016-08-27 00:35:00,68.1,67.2,30.10,SSE,167,0.0,0.0,97,0.00,,---,0.00,VWS V15.00,2016-08-27 04:35:00,
2016-08-27 00:40:00,68.0,67.1,30.10,SSE,167,0.0,0.0,97,0.00,,---,0.00,VWS V15.00,2016-08-27 04:40:00,
2016-08-27 00:45:00,67.9,67.0,30.10,SSE,167,0.0,0.0,97,0.00,,---,0.00,VWS V15.00,2016-08-27 04:45:00,
2016-08-27 00:50:00,67.9,67.0,30.10,SSE,167,0.0,0.0,97,0.00,,---,0.00,VWS V15.00,2016-08-27 04:50:00,
2016-08-27 00:55:00,67.8,66.9,30.10,SSE,167,0.0,0.0,97,0.00,,---,0.00,VWS V15.00,2016-08-27 04:55:00,
2016-08-27 01:00:00,67.7,66.8,30.10,SSE,167,0.0,0.0,97,0.00,,---,0.00,VWS V15.00,2016-08-27 05:00:00,
2016-08-27 01:05:00,67.6,66.7,30.09,SSE,167,0.0,0.0,97,0.00,,---,0.00,VWS V15.00,2016-08-27 05:05:00,
2016-08-27 01:10:00,67.5,66.6,30.09,SSE,167,0.0,0.0,97,0.00,,---,0.00,VWS V15.00,2016-08-27 05:10:00,
2016-08-27 01:15:00,67.3,66.4,30.09,SSE,167,0.0,0.0,97,0.00,,---,0.00,VWS V15.00,2016-08-27 05:15:00,
2016-08-27 01:20:00,67.2,66.3,30.09,SSE,167,0.0,0.0,97,0.00,,---,0.00,VWS V15.00,2016-08-27 05:20:00,
2016-08-27 01:25:00,67.2,66.3,30.09,SSE,167,0.0,0.0,97,0.00,,---,0.00,VWS V15.00,2016-08-27 05:25:00,
2016-08-27 01:30:00,67.2,66.3,30.09,SSE,167,0.0,0.0,97,0.00,,---,0.00,VWS V15.00,2016-08-27 05:30:00,
2016-08-27 01:35:00,67.2,66.3,30.09,SSE,167,0.0,0.0,97,0.00,,---,0.00,VWS V15.00,2016-08-27 05:35:00,
2016-08-27 01:40:00,67.0,66.1,30.09,SSE,167,0.0,0.0,97,0.00,,---,0.00,VWS V15.00,2016-08-27 05:40:00,
2016-08-27 01:46:00,66.8,65.9,30.09,SSE,167,0.0,0.0,97,0.00,,---,0.00,VWS V15.00,2016-08-27 05:46:00,
2016-08-27 01:51:00,66.5,65.6,30.09,SSE,167,0.0,0.0,97,0.00,,---,0.00,VWS V15.00,2016-08-27 05:51:00,
2016-08-27 01:56:00,66.5,65.6,30.09,SSE,167,0.0,0.0,97,0.00,,---,0.00,VWS V15.00,2016-08-27 05:56:00,
2016-08-27 02:01:00,66.5,65.6,30.08,SSE,167,0.0,0.0,97,0.00,,---,0.00,VWS V15.00,2016-08-27 06:01:00,
2016-08-27 02:06:00,66.5,65.6,30.08,SSE,167,0.0,0.0,97,0.00,,---,0.00,VWS V15.00,2016-08-27 06:06:00,
2016-08-27 02:11:00,66.4,65.5,30.09,SSE,167,0.0,0.0,97,0.00,,---,0.00,VWS V15.00,2016-08-27 06:11:00,
2016-08-27 02:16:00,66.3,65.4,30.09,SSE,167,0.0,0.0,97,0.00,,---,0.00,VWS V15.00,2016-08-27 06:16:00,
2016-08-27 02:21:00,66.2,65.3,30.08,SSE,167,0.0,0.0,97,0.00,,---,0.00,VWS V15.00,2016-08-27 06:21:00,
2016-08-27 02:26:00,66.1,65.2,30.08,SSE,167,0.0,0.0,97,0.00,,---,0.00,VWS V15.00,2016-08-27 06:26:00,
2016-08-27 02:31:00,65.9,65.0,30.09,SSE,167,0.0,0.0,97,0.00,,---,0.00,VWS V15.00,2016-08-27 06:31:00,
2016-08-27 02:36:00,65.8,64.9,30.09,SSE,167,0.0,0.0,97,0.00,,---,0.00,VWS V15.00,2016-08-27 06:36:00,
2016-08-27 02:41:00,65.7,64.8,30.09,SSE,167,0.0,0.0,97,0.00,,---,0.00,VWS V15.00,2016-08-27 06:41:00,
2016-08-27 02:46:00,65.7,64.8,30.09,SSE,167,0.0,0.0,97,0.00,,---,0.00,VWS V15.00,2016-08-27 06:46:00,
2016-08-27 02:51:00,65.6,64.7,30.09,SSE,167,0.0,0.0,97,0.00,,---,0.00,VWS V15.00,2016-08-27 06:51:00,
2016-08-27 02:56:00,65.8,64.9,30.09,SSE,167,0.0,0.0,97,0.00,,---,0.00,VWS V15.00,2016-08-27 06:56:00,
2016-08-27 03:01:00,65.7,64.8,30.09,SSE,167,0.0,0.0,97,0.00,,---,0.00,VWS V15.00,2016-08-27 07:01:00,
2016-08-27 03:06:00,65.6,64.7,30.09,SSE,167,0.0,0.0,97,0.00,,---,0.00,VWS V15.00,2016-08-27 07:06:00,
2016-08-27 03:12:00,65.6,64.7,30.08,SSE,167,0.0,0.0,97,0.00,,---,0.00,VWS V15.00,2016-08-27 07:12:00,
2016-08-27 03:17:00,65.5,64.6,30.08,SSE,167,0.0,0.0,97,0.00,,---,0.00,VWS V15.00,2016-08-27 07:17:00,
2016-08-27 03:22:00,65.4,64.5,30.08,SSE,167,0.0,0.0,97,0.00,,---,0.00,VWS V15.00,2016-08-27 07:22:00,
2016-08-27 03:27:00,65.3,64.4,30.08,SSE,167,0.0,0.0,97,0.00,,---,0.00,VWS V15.00,2016-08-27 07:27:00,
2016-08-27 03:32:00,65.3,64.7,30.08,SSE,167,0.0,0.0,98,0.00,,---,0.00,VWS V15.00,2016-08-27 07:32:00,
2016-08-27 03:37:00,65.3,64.7,30.08,SSE,167,0.0,0.0,98,0.00,,---,0.00,VWS V15.00,2016-08-27 07:37:00,
2016-08-27 03:42:00,65.2,64.6,30.08,SSE,167,0.0,0.0,98,0.00,,---,0.00,VWS V15.00,2016-08-27 07:42:00,
2016-08-27 03:47:00,65.3,64.7,30.08,SSE,167,0.0,0.0,98,0.00,,---,0.00,VWS V15.00,2016-08-27 07:47:00,
2016-08-27 03:52:00,65.2,64.6,30.08,SSE,167,0.0,0.0,98,0.00,,---,0.00,VWS V15.00,2016-08-27 07:52:00,
2016-08-27 03:57:00,65.2,64.6,30.08,SSE,167,0.0,0.0,98,0.00,,---,0.00,VWS V15.00,2016-08-27 07:57:00,
2016-08-27 04:02:00,65.2,64.6,30.08,SSE,167,0.0,0.0,98,0.00,,---,0.00,VWS V15.00,2016-08-27 08:02:00,
2016-08-27 04:07:00,65.1,64.2,30.08,SSE,167,0.0,0.0,97,0.00,,---,0.00,VWS V15.00,2016-08-27 08:07:00,
2016-08-27 04:12:00,64.9,64.0,30.08,SSE,167,0.0,0.0,97,0.00,,---,0.00,VWS V15.00,2016-08-27 08:12:00,
2016-08-27 04:17:00,64.8,64.2,30.09,SSE,167,0.0,0.0,98,0.00,,---,0.00,VWS V15.00,2016-08-27 08:17:00,
2016-08-27 04:23:00,64.8,64.2,30.09,SSE,167,0.0,0.0,98,0.00,,---,0.00,VWS V15.00,2016-08-27 08:23:00,
2016-08-27 04:28:00,64.8,64.2,30.09,SSE,167,0.0,0.0,98,0.00,,---,0.00,VWS V15.00,2016-08-27 08:28:00,
2016-08-27 04:33:00,64.8,64.2,30.09,SSE,167,0.0,0.0,98,0.00,,---,0.00,VWS V15.00,2016-08-27 08:33:00,
2016-08-27 04:38:00,64.7,64.1,30.09,SSE,167,0.0,0.0,98,0.00,,---,0.00,VWS V15.00,2016-08-27 08:38:00,
2016-08-27 04:43:00,64.6,64.0,30.09,SSE,167,0.0,0.0,98,0.00,,---,0.00,VWS V15.00,2016-08-27 08:43:00,
2016-08-27 04:48:00,64.5,63.9,30.09,SSE,167,0.0,0.0,98,0.00,,---,0.00,VWS V15.00,2016-08-27 08:48:00,
2016-08-27 04:53:00,64.6,64.0,30.09,SSE,167,0.0,0.0,98,0.00,,---,0.00,VWS V15.00,2016-08-27 08:53:00,
2016-08-27 04:58:00,64.6,64.0,30.09,SSE,167,0.0,0.0,98,0.00,,---,0.00,VWS V15.00,2016-08-27 08:58:00,
2016-08-27 05:03:00,64.5,63.9,30.09,SSE,167,0.0,0.0,98,0.00,,---,0.00,VWS V15.00,2016-08-27 09:03:00,
2016-08-27 05:08:00,64.4,63.8,30.09,SSE,167,0.0,0.0,98,0.00,,---,0.00,VWS V15.00,2016-08-27 09:08:00,
2016-08-27 05:13:00,64.4,63.8,30.10,SSE,167,0.0,0.0,98,0.00,,---,0.00,VWS V15.00,2016-08-27 09:13:00,
2016-08-27 05:18:00,64.3,63.7,30.10,SSE,167,0.0,0.0,98,0.00,,---,0.00,VWS V15.00,2016-08-27 09:18:00,
2016-08-27 05:23:00,64.2,63.6,30.10,SSE,167,0.0,0.0,98,0.00,,---,0.00,VWS V15.00,2016-08-27 09:23:00,
2016-08-27 05:28:00,64.3,63.7,30.10,SSE,167,0.0,0.0,98,0.00,,---,0.00,VWS V15.00,2016-08-27 09:28:00,
2016-08-27 05:34:00,64.3,63.7,30.10,SSE,167,0.0,0.0,98,0.00,,---,0.00,VWS V15.00,2016-08-27 09:34:00,
2016-08-27 05:39:00,64.2,63.6,30.10,SSE,167,0.0,0.0,98,0.00,,---,0.00,VWS V15.00,2016-08-27 09:39:00,
2016-08-27 05:44:00,64.1,63.5,30.10,SSE,167,0.0,0.0,98,0.00,,---,0.00,VWS V15.00,2016-08-27 09:44:00,
2016-08-27 05:49:00,64.0,63.4,30.10,SSE,167,0.0,0.0,98,0.00,,---,0.00,VWS V15.00,2016-08-27 09:49:00,
2016-08-27 05:54:00,63.9,63.3,30.10,SSE,167,0.0,0.0,98,0.00,,---,0.00,VWS V15.00,2016-08-27 09:54:00,
2016-08-27 05:59:00,63.9,63.3,30.10,SSE,167,0.0,0.0,98,0.00,,---,0.00,VWS V15.00,2016-08-27 09:59:00,
2016-08-27 06:04:00,63.9,63.3,30.10,SSE,167,0.0,0.0,98,0.00,,---,0.00,VWS V15.00,2016-08-27 10:04:00,
2016-08-27 06:09:00,63.9,63.3,30.10,SSE,167,0.0,0.0,98,0.00,,---,0.00,VWS V15.00,2016-08-27 10:09:00,
2016-08-27 06:14:00,63.9,63.3,30.11,SSE,167,0.0,0.0,98,0.00,,---,0.00,VWS V15.00,2016-08-27 10:14:00,
2016-08-27 06:19:00,63.9,63.3,30.10,SSE,167,0.0,0.0,98,0.00,,---,0.00,VWS V15.00,2016-08-27 10:19:00,
2016-08-27 06:24:00,64.0,63.4,30.11,SSE,167,0.0,0.0,98,0.00,,---,0.00,VWS V15.00,2016-08-27 10:24:00,
2016-08-27 06:29:00,64.0,63.4,30.11,SSE,167,0.0,0.0,98,0.00,,---,0.00,VWS V15.00,2016-08-27 10:29:00,
2016-08-27 06:34:00,64.0,63.4,30.11,SSE,167,0.0,0.0,98,0.00,,---,0.00,VWS V15.00,2016-08-27 10:34:00,
2016-08-27 06:39:00,63.9,63.3,30.11,SSE,167,0.0,0.0,98,0.00,,---,0.00,VWS V15.00,2016-08-27 10:39:00,
2016-08-27 06:44:00,63.9,63.3,30.11,SSE,167,0.0,0.0,98,0.00,,---,0.00,VWS V15.00,2016-08-27 10:44:00,
2016-08-27 06:49:00,63.8,63.2,30.11,SSE,167,0.0,0.0,98,0.00,,---,0.00,VWS V15.00,2016-08-27 10:49:00,
2016-08-27 06:55:00,63.7,63.1,30.12,SSE,167,0.0,0.0,98,0.00,,---,0.00,VWS V15.00,2016-08-27 10:55:00,
2016-08-27 07:00:00,63.7,63.1,30.12,SSE,167,0.0,0.0,98,0.00,,---,0.00,VWS V15.00,2016-08-27 11:00:00,
2016-08-27 07:05:00,63.6,63.0,30.12,SSE,167,0.0,0.0,98,0.00,,---,0.00,VWS V15.00,2016-08-27 11:05:00,
2016-08-27 07:10:00,63.6,63.0,30.12,SSE,167,0.0,0.0,98,0.00,,---,0.00,VWS V15.00,2016-08-27 11:10:00,
2016-08-27 07:15:00,63.7,63.1,30.12,SSE,167,0.0,0.0,98,0.00,,---,0.00,VWS V15.00,2016-08-27 11:15:00,
2016-08-27 07:20:00,63.7,63.1,30.12,SSE,167,0.0,0.0,98,0.00,,---,0.00,VWS V15.00,2016-08-27 11:20:00,
2016-08-27 07:25:00,63.7,63.1,30.12,SSE,167,0.0,0.0,98,0.00,,---,0.00,VWS V15.00,2016-08-27 11:25:00,
2016-08-27 07:30:00,63.8,63.2,30.12,SSE,167,0.0,0.0,98,0.00,,---,0.00,VWS V15.00,2016-08-27 11:30:00,